Time;durP1;ratioP1;P1;durP2;ratioP2;P2;SDS_P1;SDS_P2;PMS_P1;PMS_P2;Temp;Humidity;BMP_temperature;BMP_pressure;BME280_temperature;BME280_humidity;BME280_pressure;Samples;Min_cycle;Max_cycle;Signal;HPM_P1;HPM_P2
2023/10/12 00:03:05;;;;;;;;;;;;;;;-0.07;83.09;102088.41;10542353;28;20422;-75
2023/10/12 00:08:10;;;;;;;;;;;;;;;-0.09;83.32;102082.41;10542572;28;19916;-75
2023/10/12 00:13:14;;;;;;;;;;;;;;;-0.14;83.34;102097.38;10541952;28;19916;-75
2023/10/12 00:18:14;;;;;;;;;;;;;;;-0.21;82.82;102085.44;10541890;28;19915;-75
2023/10/12 00:23:15;;;;;;;;;;;;;;;-0.23;82.86;102095.13;10542415;28;19941;-75
2023/10/12 00:28:17;;;;;;;;;;;;;;;-0.27;82.86;102099.59;10541658;28;19916;-75
2023/10/12 00:33:18;;;;;;;;;;;;;;;-0.34;82.77;102095.50;10540930;28;20374;-76
2023/10/12 00:38:22;;;;;;;;;;;;;;;-0.46;82.43;102102.00;10539860;28;19916;-75
2023/10/12 00:43:36;;;;;;;;;;;;;;;-0.45;82.84;102092.41;10539893;28;20006;-75
2023/10/12 00:48:39;;;;;;;;;;;;;;;-0.48;82.89;102098.59;10539028;28;19916;-75
2023/10/12 00:53:50;;;;;;;;;;;;;;;-0.42;83.44;102097.50;10540582;28;19963;-76
2023/10/12 00:58:55;;;;;;;;;;;;;;;-0.48;83.22;102097.72;10539905;28;19924;-75
2023/10/12 01:03:56;;;;;;;;;;;;;;;-0.50;83.50;102118.69;10539516;28;19923;-75
2023/10/12 01:09:04;;;;;;;;;;;;;;;-0.58;82.81;102107.66;10538996;28;19969;-75
2023/10/12 01:14:09;;;;;;;;;;;;;;;-0.58;83.53;102091.97;10538754;28;19941;-75
2023/10/12 01:19:10;;;;;;;;;;;;;;;-0.63;82.58;102095.66;10540101;28;20333;-75
2023/10/12 01:24:13;;;;;;;;;;;;;;;-0.73;82.61;102089.91;10538885;28;19916;-75
2023/10/12 01:29:20;;;;;;;;;;;;;;;-0.76;83.19;102100.44;10539169;28;19922;-75
2023/10/12 01:34:24;;;;;;;;;;;;;;;-0.80;82.81;102099.72;10539402;28;19967;-75
2023/10/12 01:39:28;;;;;;;;;;;;;;;-0.88;82.82;102106.09;10537855;28;19930;-75
2023/10/12 01:44:29;;;;;;;;;;;;;;;-0.85;84.32;102101.59;10538642;28;19916;-75
2023/10/12 01:49:30;;;;;;;;;;;;;;;-0.75;84.91;102092.59;10538108;28;20387;-75
2023/10/12 01:54:32;;;;;;;;;;;;;;;-0.81;84.02;102097.97;10538123;28;20267;-75
2023/10/12 01:59:33;;;;;;;;;;;;;;;-0.81;84.48;102100.59;10537954;28;19924;-75
2023/10/12 02:04:39;;;;;;;;;;;;;;;-0.85;83.66;102113.81;10536816;28;20357;-75
2023/10/12 02:09:44;;;;;;;;;;;;;;;-0.89;83.37;102112.22;10537339;28;19924;-75
2023/10/12 02:14:45;;;;;;;;;;;;;;;-0.90;83.66;102110.50;10519929;28;19927;-75
2023/10/12 02:19:49;;;;;;;;;;;;;;;-0.95;84.26;102118.50;10537348;28;20492;-75
2023/10/12 02:30:18;;;;;;;;;;;;;;;-0.99;83.84;102120.34;10537620;28;19916;-75
2023/10/12 02:35:21;;;;;;;;;;;;;;;-1.06;83.43;102115.38;10519947;28;20298;-74
2023/10/12 02:40:22;;;;;;;;;;;;;;;-1.15;83.35;102112.16;10536823;28;19919;-73
2023/10/12 02:45:27;;;;;;;;;;;;;;;-1.15;83.35;102106.94;10536288;28;19971;-74
2023/10/12 02:50:29;;;;;;;;;;;;;;;-1.13;83.98;102109.50;10537288;28;20429;-74
2023/10/12 02:55:40;;;;;;;;;;;;;;;-1.20;83.94;102107.97;10536502;28;20010;-75
2023/10/12 03:00:54;;;;;;;;;;;;;;;-1.28;83.87;102104.78;10537365;28;19920;-75
2023/10/12 03:06:00;;;;;;;;;;;;;;;-1.26;83.70;102087.31;10540277;28;19920;-76
2023/10/12 03:16:32;;;;;;;;;;;;;;;-1.17;83.84;102087.91;10545030;28;19927;-73
2023/10/12 03:21:33;;;;;;;;;;;;;;;-1.07;84.31;102087.59;10540591;28;19923;-74
2023/10/12 03:26:33;;;;;;;;;;;;;;;-1.08;84.26;102091.94;10544550;28;19916;-71
2023/10/12 03:31:36;;;;;;;;;;;;;;;-0.98;84.43;102101.19;10541265;28;19938;-73
2023/10/12 03:36:36;;;;;;;;;;;;;;;-0.93;84.18;102104.50;10543210;28;19927;-73
2023/10/12 03:52:20;;;;;;;;;;;;;;;0.61;84.75;102112.81;10543140;28;19916;-75
2023/10/12 03:57:27;;;;;;;;;;;;;;;1.02;83.53;102125.19;10542909;28;19920;-78
2023/10/12 04:02:27;;;;;;;;;;;;;;;1.40;83.31;102122.72;10542728;28;19919;-74
2023/10/12 04:07:45;;;;;;;;;;;;;;;1.47;82.11;102138.09;10541812;28;20015;-79
2023/10/12 04:12:53;;;;;;;;;;;;;;;1.53;81.11;102126.53;10541732;28;19916;-75
2023/10/12 04:17:59;;;;;;;;;;;;;;;1.77;81.12;102122.81;10541460;28;20363;-75
2023/10/12 04:28:32;;;;;;;;;;;;;;;2.38;80.93;102124.44;10541083;28;19916;-75
2023/10/12 04:33:43;;;;;;;;;;;;;;;2.62;80.55;102132.06;10540089;28;20345;-74
2023/10/12 04:46:49;;;;;;;;;;;;;;;3.24;80.31;102138.66;10351794;28;19930;-77
2023/10/12 04:56:23;;;;;;;7.88;3.30;;;;;;;3.58;78.78;102126.44;10471789;27;20855;-77
2023/10/12 05:01:40;;;;;;;8.07;3.95;;;;;;;3.69;78.04;102084.69;10406779;28;20084;-78
2023/10/12 05:06:56;;;;;;;9.65;3.47;;;;;;;3.97;77.89;102062.19;10407216;28;20038;-78
2023/10/12 05:11:57;;;;;;;10.05;3.10;;;;;;;4.31;77.53;102029.63;10407371;28;20429;-78
2023/10/12 05:16:58;;;;;;;17.23;3.72;;;;;;;5.33;76.80;102124.72;10406655;28;20030;-78
2023/10/12 05:21:59;;;;;;;5.55;2.88;;;;;;;5.62;75.95;102115.03;10407220;28;20046;-78
2023/10/12 05:27:19;;;;;;;8.55;2.80;;;;;;;6.10;75.17;102120.94;10407008;28;20069;-78
2023/10/12 05:32:36;;;;;;;3.15;2.38;;;;;;;6.51;75.10;102114.84;10406701;28;20076;-78
2023/10/12 05:37:48;;;;;;;4.78;1.95;;;;;;;6.86;73.16;102113.41;10406605;28;20045;-78
2023/10/12 05:42:50;;;;;;;8.93;1.67;;;;;;;6.67;72.55;102065.38;10406363;28;20539;-78
2023/10/12 05:47:52;;;;;;;3.28;1.70;;;;;;;7.25;71.44;102097.66;10406445;28;20041;-79
2023/10/12 05:52:59;;;;;;;3.80;1.90;;;;;;;7.22;70.65;102074.91;10406145;28;20093;-78
2023/10/12 05:58:11;;;;;;;6.85;1.33;;;;;;;7.53;69.52;102068.34;10405669;28;20053;-78
2023/10/12 06:03:15;;;;;;;4.85;2.13;;;;;;;8.02;68.75;102124.97;10402672;28;20041;-78
2023/10/12 06:08:19;;;;;;;4.10;1.48;;;;;;;7.63;67.71;102046.56;10376502;28;20107;-78
2023/10/12 06:13:30;;;;;;;2.65;1.63;;;;;;;8.04;66.51;102098.38;10377388;28;20128;-78
2023/10/12 06:18:31;;;;;;;2.45;1.70;;;;;;;8.31;66.11;102074.38;10378423;28;20410;-79
2023/10/12 06:23:32;;;;;;;3.20;2.03;;;;;;;8.73;65.82;102098.72;10377956;28;20046;-78
2023/10/12 06:28:33;;;;;;;2.53;1.42;;;;;;;8.96;64.95;102086.44;10377949;28;20050;-79
2023/10/12 06:33:34;;;;;;;3.47;2.20;;;;;;;9.24;64.50;102095.78;10376661;28;20521;-78
2023/10/12 06:44:12;;;;;;;4.30;2.30;;;;;;;9.59;62.33;102098.41;10383173;28;20050;-79
2023/10/12 06:49:23;;;;;;;4.32;2.45;;;;;;;9.57;62.13;102066.69;10376692;28;20070;-79
2023/10/12 06:54:49;;;;;;;4.20;2.10;;;;;;;9.63;60.64;102056.53;10376512;28;20482;-78
2023/10/12 07:05:04;;;;;;;4.43;1.90;;;;;;;10.06;59.51;102073.44;10376594;28;20046;-79
2023/10/12 07:15:25;;;;;;;7.72;2.60;;;;;;;10.28;57.94;102055.81;10374529;28;20038;-79
2023/10/12 07:25:36;;;;;;;5.25;2.22;;;;;;;10.78;56.94;102061.44;10375143;28;20041;-80
2023/10/12 07:30:42;;;;;;;8.75;2.38;;;;;;;11.01;56.35;102048.91;10374576;28;20049;-80
2023/10/12 07:35:43;;;;;;;3.72;2.10;;;;;;;10.97;55.41;102020.84;10373077;28;20041;-81
2023/10/12 07:41:00;;;;;;;3.85;2.20;;;;;;;11.26;55.67;102037.00;10374121;28;20042;-80
2023/10/12 07:46:44;;;;;;;3.50;2.03;;;;;;;11.05;54.48;102023.72;10374341;28;20042;-79
2023/10/12 07:51:26;;;;;;;2.78;1.70;;;;;;;10.81;54.05;101951.34;10376045;28;20050;-82
2023/10/12 07:56:33;;;;;;;15.60;3.08;;;;;;;11.40;54.18;102015.41;10374066;28;20037;-79
2023/10/12 08:11:39;;;;;;;12.15;7.35;;;;;;;12.05;52.62;101985.78;10373623;28;20041;-78
2023/10/12 08:16:40;;;;;;;19.33;8.45;;;;;;;12.22;52.28;101977.13;10373622;28;20116;-78
2023/10/12 08:21:44;;;;;;;16.10;7.97;;;;;;;12.18;52.02;101965.06;10371973;28;20042;-79
2023/10/12 08:31:46;;;;;;;7.45;2.72;;;;;;;12.02;51.90;101896.34;10373066;28;20099;-80
2023/10/12 08:38:09;;;;;;;11.25;3.90;;;;;;;12.47;50.68;101937.56;10372255;28;20128;-80
2023/10/12 08:52:30;;;;;;;9.07;2.65;;;;;;;12.48;49.78;101913.44;10373137;28;20136;-81
2023/10/12 08:57:38;;;;;;;4.28;2.42;;;;;;;12.02;49.31;101791.63;10370489;28;20108;-82
2023/10/12 09:02:39;;;;;;;9.00;3.40;;;;;;;12.92;48.95;101872.91;10372965;28;20088;-82
2023/10/12 09:07:45;;;;;;;5.00;2.40;;;;;;;12.62;48.86;101842.81;10371109;28;20068;-78
2023/10/12 09:12:46;;;;;;;5.00;2.60;;;;;;;13.09;48.83;101861.47;10371587;28;20042;-79
2023/10/12 09:17:48;;;;;;;6.47;2.88;;;;;;;13.41;48.68;101847.72;10372764;28;20046;-79
2023/10/12 09:22:57;;;;;;;4.15;2.65;;;;;;;13.44;47.70;101860.78;10372318;28;20577;-79
2023/10/12 09:27:57;;;;;;;5.82;2.50;;;;;;;12.85;47.20;101749.97;10371476;28;20060;-80
2023/10/12 09:33:06;;;;;;;3.85;2.17;;;;;;;13.51;47.16;101869.00;10370692;28;20045;-79
2023/10/12 09:38:07;;;;;;;6.70;2.70;;;;;;;13.63;46.74;101858.97;10371061;28;20141;-80
2023/10/12 09:43:12;;;;;;;8.88;3.45;;;;;;;13.73;46.12;101845.53;10379309;28;20173;-80
2023/10/12 09:48:29;;;;;;;7.78;2.95;;;;;;;13.79;44.94;101832.44;10379149;28;20041;-79
2023/10/12 09:53:37;;;;;;;7.18;4.13;;;;;;;13.80;44.88;101814.56;10378230;28;20104;-82
2023/10/12 10:14:34;;;;;;;5.43;2.30;;;;;;;14.15;43.97;101771.78;10377528;28;20037;-80
2023/10/12 10:19:35;;;;;;;6.13;2.33;;;;;;;13.90;43.83;101748.53;10377319;28;20135;-80
2023/10/12 10:24:46;;;;;;;3.20;1.60;;;;;;;13.97;41.63;101762.97;10377306;28;20489;-82
2023/10/12 10:29:59;;;;;;;3.50;1.85;;;;;;;13.86;42.50;101750.69;10377184;28;20044;-82
2023/10/12 10:35:07;;;;;;;7.72;2.08;;;;;;;13.75;42.95;101723.38;10376144;28;20057;-82
2023/10/12 10:40:10;;;;;;;4.00;1.88;;;;;;;13.81;42.62;101736.94;10377145;28;20041;-80
2023/10/12 10:45:12;;;;;;;6.53;3.30;;;;;;;13.98;42.19;101732.56;10376866;28;20046;-81
2023/10/12 10:50:15;;;;;;;5.18;2.47;;;;;;;14.05;41.64;101730.94;10377268;28;20096;-80
2023/10/12 10:55:24;;;;;;;3.88;1.55;;;;;;;14.26;41.05;101730.56;10376012;28;20058;-80
2023/10/12 11:00:33;;;;;;;9.25;2.00;;;;;;;13.99;40.29;101715.53;10375806;28;20076;-81
2023/10/12 11:05:37;;;;;;;9.23;2.03;;;;;;;14.06;40.64;101723.75;10376034;28;20044;-82
2023/10/12 11:11:17;;;;;;;6.95;1.80;;;;;;;14.01;39.72;101708.22;10376000;28;20038;-81
2023/10/12 11:16:20;;;;;;;4.00;1.80;;;;;;;13.97;38.97;101714.88;10375638;28;20042;-80
2023/10/12 11:21:22;;;;;;;9.02;1.80;;;;;;;14.10;39.91;101703.75;10375485;28;20034;-82
2023/10/12 11:26:22;;;;;;;2.30;1.40;;;;;;;13.91;39.76;101643.38;10375224;28;20379;-82
2023/10/12 11:31:32;;;;;;;2.20;1.23;;;;;;;14.30;39.27;101685.69;10375636;28;20041;-82
2023/10/12 11:36:35;;;;;;;7.28;2.97;;;;;;;14.06;38.61;101686.34;10374248;28;20096;-79
2023/10/12 11:41:36;;;;;;;4.27;2.43;;;;;;;13.78;38.45;101677.66;10389800;28;20528;-79
2023/10/12 11:46:44;;;;;;;12.68;1.77;;;;;;;13.89;37.56;101706.78;10374015;28;20041;-77
2023/10/12 11:51:51;;;;;;;12.38;1.92;;;;;;;13.53;37.66;101637.44;10374163;28;20077;-79
2023/10/12 11:56:51;;;;;;;15.38;2.10;;;;;;;13.73;37.71;101672.81;10374159;28;20038;-81
2023/10/12 12:01:56;;;;;;;13.02;1.50;;;;;;;13.57;36.70;101665.50;10373332;28;20444;-80
2023/10/12 12:06:59;;;;;;;5.15;0.93;;;;;;;13.50;36.45;101658.28;10373099;28;20033;-81
2023/10/12 12:12:01;;;;;;;13.10;1.55;;;;;;;13.58;36.39;101663.66;10374519;28;20038;-80
2023/10/12 12:17:03;;;;;;;6.72;1.27;;;;;;;13.20;35.39;101606.97;10372925;28;20046;-80
2023/10/12 12:22:04;;;;;;;2.72;0.75;;;;;;;13.41;35.55;101654.69;10373172;28;20493;-81
2023/10/12 12:27:05;;;;;;;2.38;0.98;;;;;;;12.96;35.90;101589.75;10369365;28;20054;-79
2023/10/12 12:32:19;;;;;;;2.25;1.20;;;;;;;13.28;36.03;101648.91;10373151;28;20049;-79
2023/10/12 12:37:22;;;;;;;3.15;0.90;;;;;;;13.11;35.65;101632.72;10370345;28;20052;-81
2023/10/12 12:42:23;;;;;;;5.55;0.95;;;;;;;12.73;35.88;101584.03;10370051;28;20073;-80
2023/10/12 12:47:25;;;;;;;2.20;0.90;;;;;;;12.97;35.50;101617.25;10369063;28;20073;-81
2023/10/12 12:52:25;;;;;;;8.32;1.02;;;;;;;12.87;35.55;101624.50;10371666;28;20057;-79
2023/10/12 12:57:26;;;;;;;2.97;0.77;;;;;;;12.82;35.67;101627.63;10371689;28;20493;-78
2023/10/12 13:02:28;;;;;;;2.35;0.70;;;;;;;12.63;35.87;101617.94;10372493;28;20046;-81
2023/10/12 13:07:29;;;;;;;1.40;0.63;;;;;;;12.57;35.71;101619.38;10371621;28;20092;-78
2023/10/12 13:12:32;;;;;;;3.28;0.70;;;;;;;12.06;35.71;101545.34;10371679;28;20069;-79
2023/10/12 13:17:34;;;;;;;10.30;1.00;;;;;;;12.28;35.94;101600.88;10379345;28;20132;-80
2023/10/12 13:22:36;;;;;;;2.65;0.98;;;;;;;11.96;36.21;101560.50;10379831;28;20042;-82
2023/10/12 13:27:37;;;;;;;8.10;1.10;;;;;;;12.18;36.32;101613.41;10379276;28;20042;-80
2023/10/12 13:32:39;;;;;;;4.25;0.85;;;;;;;11.93;36.84;101584.78;10379679;28;20041;-80
2023/10/12 13:37:40;;;;;;;6.90;1.27;;;;;;;11.88;37.00;101594.03;10379140;28;20120;-80
2023/10/12 13:42:42;;;;;;;8.25;1.60;;;;;;;11.75;37.72;101604.13;10379528;28;20123;-79
2023/10/12 13:47:42;;;;;;;18.17;1.63;;;;;;;11.61;38.02;101594.81;10377300;28;20044;-82
2023/10/12 13:52:43;;;;;;;23.50;2.03;;;;;;;11.43;38.92;101581.41;10378251;28;20050;-80
2023/10/12 13:57:57;;;;;;;18.02;1.50;;;;;;;11.34;38.66;101592.06;10378579;28;20048;-81
2023/10/12 14:02:58;;;;;;;1.75;0.82;;;;;;;11.19;38.84;101600.47;10377831;28;20053;-82
2023/10/12 14:07:59;;;;;;;10.23;1.13;;;;;;;10.69;39.14;101541.28;10379561;28;20048;-81
2023/10/12 14:13:00;;;;;;;5.88;1.38;;;;;;;10.86;39.83;101592.91;10378174;28;20042;-80
2023/10/12 14:18:02;;;;;;;12.25;1.92;;;;;;;10.59;40.51;101580.28;10377388;28;20037;-78
2023/10/12 14:23:06;;;;;;;15.13;4.15;;;;;;;10.33;41.24;101583.47;10378310;28;20042;-81
2023/10/12 14:28:07;;;;;;;16.90;11.77;;;;;;;10.17;42.22;101589.28;10377605;28;20045;-80
2023/10/12 14:33:08;;;;;;;29.85;15.93;;;;;;;9.98;42.56;101587.38;10384783;28;20093;-80
2023/10/12 14:38:14;;;;;;;36.13;19.17;;;;;;;9.77;43.10;101586.56;10376351;28;20053;-82
2023/10/12 14:43:15;;;;;;;22.40;9.40;;;;;;;9.59;43.52;101586.34;10376222;28;20052;-81
2023/10/12 14:48:16;;;;;;;21.48;6.25;;;;;;;8.95;44.00;101510.44;10376684;28;20030;-82
2023/10/12 14:53:21;;;;;;;27.02;7.75;;;;;;;9.12;44.54;101583.25;10375260;28;20141;-80
2023/10/12 14:58:22;;;;;;;8.90;2.80;;;;;;;8.96;45.00;101583.69;10376673;28;20049;-81
2023/10/12 15:03:23;;;;;;;8.45;2.58;;;;;;;8.67;45.70;101583.41;10375587;28;20045;-79
2023/10/12 15:08:27;;;;;;;12.13;5.13;;;;;;;8.40;46.58;101567.97;10376093;28;20129;-79
2023/10/12 15:13:28;;;;;;;18.57;4.07;;;;;;;8.20;47.34;101575.69;10375337;28;20041;-79
2023/10/12 15:18:29;;;;;;;21.05;4.97;;;;;;;7.67;47.63;101514.63;10375657;28;20368;-79
2023/10/12 15:23:30;;;;;;;20.25;4.47;;;;;;;7.83;47.63;101558.38;10375579;28;20548;-79
2023/10/12 15:28:31;;;;;;;6.00;1.40;;;;;;;7.76;47.83;101572.09;10375282;28;20088;-80
2023/10/12 15:33:37;;;;;;;6.47;1.20;;;;;;;7.37;48.05;101520.50;10374455;28;20502;-79
2023/10/12 15:38:40;;;;;;;12.93;1.50;;;;;;;7.54;48.71;101567.63;10374134;28;20041;-80
2023/10/12 15:43:41;;;;;;;3.67;0.90;;;;;;;7.20;49.63;101537.63;10374557;28;20048;-79
2023/10/12 15:48:42;;;;;;;8.40;1.13;;;;;;;7.13;49.53;101543.50;10373581;28;20508;-80
2023/10/12 15:53:42;;;;;;;6.25;1.23;;;;;;;6.99;50.38;101540.09;10374298;28;20049;-78
2023/10/12 15:58:45;;;;;;;8.02;0.98;;;;;;;7.04;50.68;101560.91;10374462;28;20524;-80
2023/10/12 16:03:46;;;;;;;5.97;0.80;;;;;;;6.83;51.31;101550.13;10373171;28;20037;-80
2023/10/12 16:08:48;;;;;;;7.65;1.00;;;;;;;6.77;51.86;101538.22;10373742;28;20121;-80
2023/10/12 16:13:49;;;;;;;6.93;1.08;;;;;;;6.61;52.23;101535.03;10374059;28;20040;-80
2023/10/12 16:18:50;;;;;;;5.68;1.40;;;;;;;6.62;52.31;101545.47;10372877;28;20509;-80
2023/10/12 16:23:52;;;;;;;16.73;2.00;;;;;;;6.53;53.16;101538.25;10356907;28;20049;-80
2023/10/12 16:29:11;;;;;;;8.63;1.90;;;;;;;6.44;53.51;101548.63;10359204;28;20056;-80
2023/10/12 16:34:14;;;;;;;9.43;2.00;;;;;;;6.24;54.41;101548.28;10373845;28;20041;-83
2023/10/12 16:39:16;;;;;;;10.50;1.45;;;;;;;5.97;55.00;101514.16;10373160;28;20053;-87
2023/10/12 16:44:17;;;;;;;5.78;1.60;;;;;;;6.06;55.99;101539.03;10373457;28;20401;-86
2023/10/12 16:49:18;;;;;;;9.15;1.98;;;;;;;5.91;56.05;101523.31;10371473;28;20650;-85
2023/10/12 16:54:19;;;;;;;13.02;2.17;;;;;;;5.96;56.21;101538.84;10372831;28;20061;-86
2023/10/12 16:59:20;;;;;;;25.17;2.25;;;;;;;5.95;57.14;101539.78;10372616;28;20402;-87
2023/10/12 17:05:00;;;;;;;26.08;2.17;;;;;;;5.94;59.50;101535.47;10367794;28;20100;-74
2023/10/12 17:10:16;;;;;;;11.25;1.90;;;;;;;5.90;60.14;101534.00;10369591;28;20421;-75
2023/10/12 17:15:18;;;;;;;5.70;1.60;;;;;;;5.79;57.91;101525.97;10361588;28;20076;-75
2023/10/12 17:20:19;;;;;;;7.97;1.60;;;;;;;5.45;58.22;101476.47;10364227;28;20053;-77
2023/10/12 17:25:20;;;;;;;11.20;1.80;;;;;;;5.55;58.61;101491.63;10363160;28;20049;-77
2023/10/12 17:30:24;;;;;;;5.80;1.70;;;;;;;5.78;59.36;101524.31;10370257;28;20050;-76
2023/10/12 17:35:25;;;;;;;7.93;2.00;;;;;;;5.78;58.99;101525.16;10370712;28;20521;-75
2023/10/12 17:40:26;;;;;;;10.57;1.83;;;;;;;5.60;59.36;101515.91;10369549;28;20128;-76
2023/10/12 17:45:27;;;;;;;5.72;1.45;;;;;;;5.60;60.29;101529.91;10368457;28;20156;-75
2023/10/12 17:50:28;;;;;;;8.57;1.80;;;;;;;5.39;60.41;101507.69;10370242;28;20490;-74
2023/10/12 17:55:39;;;;;;;3.95;1.48;;;;;;;5.20;62.86;101479.94;10368412;28;20131;-74
2023/10/12 18:00:42;;;;;;;4.05;1.52;;;;;;;5.11;61.73;101506.91;10362893;28;20140;-74
2023/10/12 18:05:43;;;;;;;12.02;1.73;;;;;;;5.07;61.91;101499.34;10375209;28;20050;-75
2023/10/12 18:10:45;;;;;;;6.85;1.60;;;;;;;4.69;62.21;101444.84;10377660;28;20053;-77
2023/10/12 18:15:47;;;;;;;3.10;1.55;;;;;;;5.00;62.54;101494.50;10377211;28;20041;-73
2023/10/12 18:20:48;;;;;;;4.18;1.70;;;;;;;5.07;62.19;101494.06;10376470;28;20045;-84
2023/10/12 18:25:50;;;;;;;3.97;1.77;;;;;;;4.78;62.82;101441.59;10375702;28;20408;-82
2023/10/12 18:31:04;;;;;;;3.25;1.65;;;;;;;5.15;65.56;101491.78;10374565;28;20037;-83
2023/10/12 18:36:09;;;;;;;6.70;1.50;;;;;;;5.11;65.18;101487.63;10358965;28;20088;-84
2023/10/12 18:41:15;;;;;;;2.72;1.33;;;;;;;5.04;65.78;101474.88;10376892;28;20046;-84
2023/10/12 18:46:19;;;;;;;5.68;1.30;;;;;;;4.92;65.12;101452.03;10362204;28;20088;-84
2023/10/12 18:51:20;;;;;;;4.80;1.48;;;;;;;4.97;64.53;101468.38;10349795;28;20132;-83
2023/10/12 18:56:22;;;;;;;4.93;1.50;;;;;;;4.97;64.99;101462.25;10361309;28;20040;-83
2023/10/12 19:01:23;;;;;;;3.45;1.17;;;;;;;4.55;65.71;101398.41;10352470;28;20497;-82
2023/10/12 19:06:23;;;;;;;4.93;1.80;;;;;;;4.66;66.11;101440.63;10348380;28;20056;-84
2023/10/12 19:11:25;;;;;;;6.55;1.60;;;;;;;4.41;66.66;101404.59;10361989;28;20132;-81
2023/10/12 19:16:26;;;;;;;6.72;1.92;;;;;;;4.71;67.05;101451.69;10374416;28;20046;-83
2023/10/12 19:21:27;;;;;;;3.72;1.77;;;;;;;4.71;66.95;101441.16;10375518;28;20042;-85
2023/10/12 19:26:29;;;;;;;11.40;2.47;;;;;;;4.63;67.96;101434.72;10373839;28;20136;-84
2023/10/12 19:31:30;;;;;;;4.88;1.70;;;;;;;4.64;68.62;101433.78;10374376;28;20096;-83
2023/10/12 19:36:31;;;;;;;7.65;1.70;;;;;;;4.78;68.68;101444.22;10375017;28;20049;-82
2023/10/12 19:41:32;;;;;;;8.45;1.63;;;;;;;4.74;69.29;101432.22;10374071;28;20512;-83
2023/10/12 19:46:33;;;;;;;4.78;1.67;;;;;;;4.53;69.85;101409.03;10373079;28;20065;-83
2023/10/12 19:51:34;;;;;;;6.85;1.90;;;;;;;4.38;69.98;101386.38;10374992;28;20552;-82
2023/10/12 19:56:34;;;;;;;11.13;2.00;;;;;;;4.36;70.38;101396.16;10358804;28;101611;-82
2023/10/12 20:01:40;;;;;;;2.83;1.50;;;;;;;4.25;71.21;101393.41;10356571;28;79092;-81
2023/10/12 20:06:42;;;;;;;28.08;3.33;;;;;;;4.14;71.68;101395.91;10337064;28;20138;-82
2023/10/12 20:11:43;;;;;;;32.03;4.05;;;;;;;3.82;71.55;101372.53;10327616;28;20137;-82
2023/10/12 20:16:44;;;;;;;11.85;2.72;;;;;;;3.78;72.20;101374.53;10343339;28;20034;-83
2023/10/12 20:21:45;;;;;;;9.02;2.10;;;;;;;3.71;72.53;101373.25;10373139;28;20050;-82
2023/10/12 20:26:46;;;;;;;14.05;2.28;;;;;;;3.69;73.24;101369.03;10373105;28;20095;-82
2023/10/12 20:31:47;;;;;;;8.27;2.20;;;;;;;3.56;73.50;101359.28;10373309;28;20386;-83
2023/10/12 20:36:48;;;;;;;31.90;2.63;;;;;;;3.37;73.61;101354.34;10372254;28;20041;-82
2023/10/12 20:41:51;;;;;;;16.25;2.60;;;;;;;3.24;74.58;101352.59;10372362;28;20060;-83
2023/10/12 20:46:52;;;;;;;6.85;1.90;;;;;;;3.01;74.13;101331.22;10373337;28;20048;-83
2023/10/12 20:51:52;;;;;;;4.97;1.90;;;;;;;3.05;74.78;101351.13;10372874;28;20459;-83
2023/10/12 20:56:56;;;;;;;5.65;1.73;;;;;;;3.01;75.53;101336.47;10371794;28;20042;-82
2023/10/12 21:02:04;;;;;;;5.13;1.90;;;;;;;2.71;75.92;101312.97;10361446;28;20410;-82
2023/10/12 21:07:05;;;;;;;5.28;2.10;;;;;;;2.69;77.01;101335.81;10370919;28;20045;-82
2023/10/12 21:12:21;;;;;;;7.07;2.13;;;;;;;2.66;77.38;101342.13;10371396;28;20034;-81
2023/10/12 21:17:32;;;;;;;5.32;2.33;;;;;;;2.54;77.94;101340.22;10372289;28;20049;-82
2023/10/12 21:22:33;;;;;;;4.20;1.92;;;;;;;2.40;78.69;101334.97;10372458;28;20045;-82
2023/10/12 21:27:37;;;;;;;4.43;1.88;;;;;;;1.66;78.82;101229.19;10372399;28;20038;-83
2023/10/12 21:32:39;;;;;;;4.07;2.03;;;;;;;2.21;79.32;101343.06;10371211;28;20502;-82
2023/10/12 21:37:40;;;;;;;3.30;1.77;;;;;;;1.99;80.35;101327.75;10377805;28;20045;-82
2023/10/12 21:42:43;;;;;;;3.10;1.70;;;;;;;1.99;80.94;101335.59;10378925;28;20041;-82
2023/10/12 21:47:44;;;;;;;4.13;2.00;;;;;;;1.97;81.63;101325.19;10378541;28;20069;-82
2023/10/12 21:52:47;;;;;;;2.97;1.52;;;;;;;1.55;81.21;101263.84;10378906;28;20089;-82
2023/10/12 21:57:48;;;;;;;4.57;1.98;;;;;;;1.92;81.92;101329.03;10378549;28;20042;-82
2023/10/12 22:02:54;;;;;;;5.70;2.00;;;;;;;1.94;82.35;101322.75;10377010;28;20107;-82
2023/10/12 22:07:55;;;;;;;7.45;2.33;;;;;;;1.92;82.46;101323.78;10377575;28;20116;-82
2023/10/12 22:12:58;;;;;;;3.63;1.90;;;;;;;1.94;82.77;101320.13;10378001;28;20034;-82
2023/10/12 22:18:02;;;;;;;12.23;2.20;;;;;;;1.58;82.45;101268.06;10366190;28;20038;-82
2023/10/12 22:23:04;;;;;;;4.05;2.10;;;;;;;1.77;82.27;101284.44;10377891;28;20053;-82
2023/10/12 22:28:05;;;;;;;6.28;2.10;;;;;;;1.88;82.36;101306.53;10377333;28;20065;-82
2023/10/12 22:33:06;;;;;;;4.03;1.95;;;;;;;1.85;82.67;101306.72;10378157;28;20088;-82
2023/10/12 22:38:07;;;;;;;4.65;2.08;;;;;;;1.79;82.85;101290.41;10376800;28;20045;-82
2023/10/12 22:43:10;;;;;;;24.17;2.40;;;;;;;1.72;82.77;101290.88;10375210;28;20046;-83
2023/10/12 22:48:12;;;;;;;10.68;2.10;;;;;;;1.68;82.53;101290.22;10376085;28;20049;-82
2023/10/12 22:53:13;;;;;;;6.78;2.05;;;;;;;1.62;82.90;101259.13;10376309;28;20528;-82
2023/10/12 22:58:14;;;;;;;4.43;1.92;;;;;;;1.68;83.43;101253.53;10391597;28;20053;-82
2023/10/12 23:03:14;;;;;;;3.05;1.67;;;;;;;1.83;83.50;101273.59;10376179;28;20054;-82
2023/10/12 23:08:15;;;;;;;7.63;2.17;;;;;;;1.55;83.46;101257.78;10375719;28;20520;-82
2023/10/12 23:13:16;;;;;;;6.82;1.77;;;;;;;1.43;82.91;101256.69;10376665;28;20029;-81
2023/10/12 23:18:20;;;;;;;4.00;2.25;;;;;;;1.35;83.11;101251.91;10375659;28;20048;-82
2023/10/12 23:23:23;;;;;;;4.28;2.08;;;;;;;1.43;82.70;101248.00;10375972;28;20513;-83
2023/10/12 23:28:24;;;;;;;5.55;2.15;;;;;;;1.16;82.99;101230.28;10375484;28;20147;-82
2023/10/12 23:33:44;;;;;;;5.03;1.92;;;;;;;0.75;83.07;101181.13;10374038;28;20041;-82
2023/10/12 23:43:58;;;;;;;4.30;1.92;;;;;;;0.89;82.61;101228.28;10374800;28;20038;-81
2023/10/12 23:54:17;;;;;;;3.53;1.95;;;;;;;0.81;82.91;101237.50;10374995;28;20472;-81
2023/10/12 23:59:21;;;;;;;5.15;2.08;;;;;;;0.77;83.37;101236.78;10373850;28;20133;-80
